Terminal Aerodrome Forecast
Issued by NWS

Home | Current Version | Previous Version | Text Only | Print | Product List | Glossary On
Versions: 1 2 3 4 5 6 7 8 9 10 11 12 13 14 15 16
000
FTUS45 KRIW 042327
TAFRKS
TAF
KRKS 042327Z 0500/0524 28020G30KT P6SM SCT090
     FM050200 VRB06KT P6SM FEW200
     FM051900 20014KT P6SM BKN200
     FM052200 25020G30KT P6SM VCTS SCT080CB BKN150=

USA.gov is the U.S. government's official web portal to all federal, state and local government web resources and services.